Time;durP1;ratioP1;P1;durP2;ratioP2;P2;SDS_P1;SDS_P2;PMS_P1;PMS_P2;Temp;Humidity;BMP_temperature;BMP_pressure;BME280_temperature;BME280_humidity;BME280_pressure;Samples;Min_cycle;Max_cycle;Signal;HPM_P1;HPM_P2
2021/12/20 00:01:41;;;;;;;6.85;1.02;;;7.90;99.90;;;;;;5092600;28;20111;-60
2021/12/20 00:04:07;;;;;;;4.95;0.93;;;7.90;99.90;;;;;;5092750;28;20107;-60
2021/12/20 00:06:32;;;;;;;5.93;1.00;;;7.90;99.90;;;;;;5092620;28;20115;-60
2021/12/20 00:08:58;;;;;;;5.20;0.90;;;7.90;99.90;;;;;;5092724;28;20020;-60
2021/12/20 00:11:23;;;;;;;5.13;1.40;;;7.90;99.90;;;;;;5092609;28;20032;-60
2021/12/20 00:13:49;;;;;;;7.80;0.82;;;7.90;99.90;;;;;;5092474;28;20468;-60
2021/12/20 00:16:14;;;;;;;7.30;1.10;;;7.90;99.90;;;;;;5092432;28;20468;-60
2021/12/20 00:18:42;;;;;;;3.78;1.20;;;7.90;99.90;;;;;;5091753;28;20040;-59
2021/12/20 00:21:08;;;;;;;4.82;0.80;;;7.90;99.90;;;;;;5092417;28;20035;-59
2021/12/20 00:23:34;;;;;;;4.03;0.88;;;7.90;99.90;;;;;;5092316;28;20042;-60
2021/12/20 00:26:00;;;;;;;4.18;0.80;;;7.90;99.90;;;;;;5092288;28;20035;-60
2021/12/20 00:28:25;;;;;;;4.70;1.20;;;7.90;99.90;;;;;;5074328;28;20020;-59
2021/12/20 00:30:51;;;;;;;3.83;0.80;;;7.90;99.90;;;;;;5092316;28;20387;-60
2021/12/20 00:33:17;;;;;;;6.95;0.90;;;7.90;99.90;;;;;;5092026;28;20035;-60
2021/12/20 00:35:44;;;;;;;8.57;1.05;;;7.90;99.90;;;;;;5092034;28;20028;-60
2021/12/20 00:40:53;;;;;;;8.05;0.77;;;7.80;99.90;;;;;;5092420;28;20109;-60
2021/12/20 00:43:19;;;;;;;7.18;0.95;;;7.90;99.90;;;;;;5092087;28;20484;-59
2021/12/20 00:45:44;;;;;;;9.27;1.25;;;7.80;99.90;;;;;;5091978;28;20095;-59
2021/12/20 00:48:11;;;;;;;6.03;1.27;;;7.80;99.90;;;;;;5091959;28;20472;-60
2021/12/20 00:50:39;;;;;;;5.32;0.60;;;7.80;99.90;;;;;;5092026;28;20024;-60
2021/12/20 00:53:05;;;;;;;10.73;1.23;;;7.80;99.90;;;;;;5091972;28;20044;-60
2021/12/20 00:55:31;;;;;;;7.97;1.20;;;7.80;99.90;;;;;;5091852;28;20094;-60
2021/12/20 00:57:58;;;;;;;8.63;1.20;;;7.80;99.90;;;;;;5091984;28;20128;-60
2021/12/20 01:00:33;;;;;;;7.80;1.05;;;7.80;99.90;;;;;;5073626;28;20063;-59
2021/12/20 01:02:59;;;;;;;6.07;0.93;;;7.80;99.90;;;;;;5092200;28;20039;-60
2021/12/20 01:05:26;;;;;;;7.85;1.33;;;7.80;99.90;;;;;;5091685;28;20028;-60
2021/12/20 01:07:55;;;;;;;8.48;0.88;;;7.80;99.90;;;;;;5085637;28;20037;-60
2021/12/20 01:10:21;;;;;;;6.28;0.90;;;7.70;99.90;;;;;;5071744;28;20090;-60
2021/12/20 01:12:49;;;;;;;7.57;1.00;;;7.70;99.90;;;;;;5076353;28;20111;-59
2021/12/20 01:15:21;;;;;;;6.45;0.98;;;7.70;99.90;;;;;;5091581;28;20024;-60
2021/12/20 01:17:48;;;;;;;10.18;1.10;;;7.70;99.90;;;;;;5091628;28;20116;-60
2021/12/20 01:20:13;;;;;;;11.95;0.88;;;7.70;99.90;;;;;;5091606;28;20032;-60
2021/12/20 01:22:42;;;;;;;4.75;0.88;;;7.70;99.90;;;;;;5091830;28;20383;-60
2021/12/20 01:25:08;;;;;;;5.72;0.80;;;7.80;99.90;;;;;;5091541;28;20070;-60
2021/12/20 01:27:33;;;;;;;8.07;0.73;;;7.80;99.90;;;;;;5091510;28;20491;-60
2021/12/20 01:29:59;;;;;;;8.77;0.88;;;7.70;99.90;;;;;;5093449;28;20028;-59
2021/12/20 01:32:24;;;;;;;8.20;1.30;;;7.80;99.90;;;;;;5095644;28;20032;-60
2021/12/20 01:34:58;;;;;;;6.03;0.93;;;7.70;99.90;;;;;;5077350;28;20031;-59
2021/12/20 01:37:23;;;;;;;4.13;0.80;;;7.80;99.90;;;;;;5095409;28;20028;-60
2021/12/20 01:39:49;;;;;;;8.45;1.17;;;7.70;99.90;;;;;;5095539;28;20173;-60
2021/12/20 01:42:18;;;;;;;5.82;1.20;;;7.70;99.90;;;;;;5095453;28;20024;-59
2021/12/20 01:44:45;;;;;;;7.60;1.05;;;7.70;99.90;;;;;;5095372;28;20035;-60
2021/12/20 01:47:12;;;;;;;8.43;1.00;;;7.70;99.90;;;;;;5095146;28;20051;-60
2021/12/20 01:49:50;;;;;;;5.57;0.73;;;7.70;99.90;;;;;;5095377;28;20379;-60
2021/12/20 01:52:20;;;;;;;7.90;1.02;;;7.70;99.90;;;;;;5095154;28;20165;-60
2021/12/20 01:54:45;;;;;;;8.68;0.70;;;7.70;99.90;;;;;;5095241;28;20024;-60
2021/12/20 01:57:11;;;;;;;6.13;1.35;;;7.70;99.90;;;;;;5076856;28;20551;-60
2021/12/20 01:59:39;;;;;;;9.10;1.00;;;7.70;99.90;;;;;;5095178;28;20028;-60
2021/12/20 02:02:05;;;;;;;5.38;1.05;;;7.70;99.90;;;;;;5095015;28;20052;-60
2021/12/20 02:04:31;;;;;;;9.25;1.08;;;7.60;99.90;;;;;;5094868;28;20125;-60
2021/12/20 02:06:57;;;;;;;4.35;0.70;;;7.60;99.90;;;;;;5094669;28;20024;-59
2021/12/20 02:09:22;;;;;;;8.85;0.93;;;7.60;99.90;;;;;;5076943;28;20024;-60
2021/12/20 02:11:49;;;;;;;5.50;0.93;;;7.60;99.90;;;;;;5095046;28;20038;-59
2021/12/20 02:14:17;;;;;;;8.93;1.20;;;7.60;99.90;;;;;;5094783;28;20040;-60
2021/12/20 02:16:44;;;;;;;10.50;1.15;;;7.70;99.90;;;;;;5094804;28;20024;-60
2021/12/20 02:19:13;;;;;;;7.82;1.50;;;7.60;99.90;;;;;;5094479;28;20056;-60
2021/12/20 02:21:40;;;;;;;9.47;0.90;;;7.70;99.90;;;;;;5094501;28;20032;-60
2021/12/20 02:24:06;;;;;;;7.15;0.95;;;7.70;99.90;;;;;;5094642;28;20043;-59
2021/12/20 02:26:32;;;;;;;7.22;1.08;;;7.60;99.90;;;;;;5094584;28;20471;-60
2021/12/20 02:29:03;;;;;;;8.07;1.17;;;7.60;99.90;;;;;;5094617;28;20030;-60
2021/12/20 02:39:41;;;;;;;10.73;1.10;;;7.60;99.90;;;;;;5094413;28;20038;-60
2021/12/20 02:42:10;;;;;;;8.63;1.35;;;7.60;99.90;;;;;;5094153;28;20020;-60
2021/12/20 02:44:36;;;;;;;8.40;0.90;;;7.60;99.90;;;;;;5094072;28;20434;-60
2021/12/20 02:49:27;;;;;;;6.13;0.95;;;7.50;99.90;;;;;;5094317;28;20388;-60
2021/12/20 02:51:58;;;;;;;13.85;2.13;;;7.50;99.90;;;;;;5093974;28;20036;-60
2021/12/20 02:54:24;;;;;;;7.78;1.05;;;7.50;99.90;;;;;;5093961;28;20047;-60
2021/12/20 02:56:50;;;;;;;11.05;1.50;;;7.50;99.90;;;;;;5094027;28;20032;-60
2021/12/20 02:59:16;;;;;;;12.70;1.58;;;7.50;99.90;;;;;;5093783;28;20377;-60
2021/12/20 03:01:49;;;;;;;8.80;1.83;;;7.50;99.90;;;;;;5092949;28;20027;-60
2021/12/20 03:04:15;;;;;;;10.82;1.83;;;7.50;99.90;;;;;;5093122;28;20055;-60
2021/12/20 03:06:43;;;;;;;6.93;1.10;;;7.50;99.90;;;;;;5092907;28;20052;-59
2021/12/20 03:09:13;;;;;;;8.82;1.35;;;7.50;99.90;;;;;;5093339;28;20024;-59
2021/12/20 03:11:39;;;;;;;7.53;1.05;;;7.50;99.90;;;;;;5093657;28;20036;-60
2021/12/20 03:16:43;;;;;;;5.15;0.90;;;7.50;99.90;;;;;;5093815;28;20016;-59
2021/12/20 03:19:09;;;;;;;6.13;0.88;;;7.50;99.90;;;;;;5093370;28;20052;-60
2021/12/20 03:21:34;;;;;;;9.30;1.20;;;7.50;99.90;;;;;;5093539;28;20036;-60
2021/12/20 03:24:00;;;;;;;8.63;1.10;;;7.50;99.90;;;;;;5093244;28;20020;-60
2021/12/20 03:26:26;;;;;;;8.07;1.23;;;7.50;99.90;;;;;;5093611;28;20023;-59
2021/12/20 03:28:51;;;;;;;5.10;0.98;;;7.50;99.90;;;;;;5093364;28;20017;-60
2021/12/20 03:31:17;;;;;;;11.40;2.17;;;7.50;99.90;;;;;;5093378;28;20036;-60
2021/12/20 03:33:43;;;;;;;8.55;1.25;;;7.40;99.90;;;;;;5093268;28;20102;-60
2021/12/20 03:36:09;;;;;;;6.65;1.00;;;7.40;99.90;;;;;;5093183;28;20107;-60
2021/12/20 03:38:34;;;;;;;11.02;1.38;;;7.40;99.90;;;;;;5092988;28;20467;-59
2021/12/20 03:41:00;;;;;;;5.72;1.10;;;7.40;99.90;;;;;;5074761;28;20036;-60
2021/12/20 03:43:31;;;;;;;6.10;1.15;;;7.40;99.90;;;;;;5093095;28;20853;-59
2021/12/20 03:45:58;;;;;;;8.50;1.20;;;7.40;99.90;;;;;;5093169;28;20017;-59
2021/12/20 03:48:24;;;;;;;11.40;1.40;;;7.40;99.90;;;;;;5092988;28;20065;-59
2021/12/20 03:50:50;;;;;;;9.73;1.10;;;7.40;99.90;;;;;;5093061;28;20020;-59
2021/12/20 03:53:16;;;;;;;7.25;0.93;;;7.40;99.90;;;;;;5092094;28;20030;-59
2021/12/20 03:55:42;;;;;;;7.05;1.00;;;7.40;99.90;;;;;;5092796;28;20031;-60
2021/12/20 03:58:07;;;;;;;9.48;1.30;;;7.40;99.90;;;;;;5092807;28;20067;-59
2021/12/20 04:00:33;;;;;;;8.25;0.93;;;7.40;99.90;;;;;;5092787;28;20089;-60
2021/12/20 04:02:58;;;;;;;6.20;0.80;;;7.30;99.90;;;;;;5092723;28;20391;-60
2021/12/20 04:05:24;;;;;;;11.18;1.40;;;7.40;99.90;;;;;;5092516;28;20127;-59
2021/12/20 04:07:50;;;;;;;10.32;1.17;;;7.40;99.90;;;;;;5074262;28;20024;-59
2021/12/20 04:10:16;;;;;;;10.82;1.60;;;7.40;99.90;;;;;;5092420;28;20093;-59
2021/12/20 04:12:41;;;;;;;7.75;1.13;;;7.40;99.90;;;;;;5092811;28;20071;-60
2021/12/20 04:15:07;;;;;;;7.97;1.08;;;7.40;99.90;;;;;;5074353;28;20066;-60
2021/12/20 04:17:33;;;;;;;14.10;1.95;;;7.40;99.90;;;;;;5074116;28;20024;-60
2021/12/20 04:19:58;;;;;;;7.38;1.05;;;7.30;99.90;;;;;;5092282;28;20071;-60
2021/12/20 04:22:24;;;;;;;6.78;1.00;;;7.30;99.90;;;;;;5092223;28;20032;-60
2021/12/20 04:24:49;;;;;;;11.05;1.45;;;7.30;99.90;;;;;;5092150;28;20032;-60
2021/12/20 04:27:15;;;;;;;7.43;0.93;;;7.30;99.90;;;;;;5092255;28;20028;-59
2021/12/20 04:29:40;;;;;;;8.65;1.10;;;7.30;99.90;;;;;;5092241;28;20524;-59
2021/12/20 04:32:06;;;;;;;7.25;1.63;;;7.30;99.90;;;;;;5092355;28;20047;-60
2021/12/20 04:34:32;;;;;;;11.15;1.23;;;7.30;99.90;;;;;;5092187;28;20373;-60
2021/12/20 04:36:57;;;;;;;9.57;1.90;;;7.30;99.90;;;;;;5092079;28;20459;-60
2021/12/20 04:39:28;;;;;;;9.90;1.30;;;7.30;99.90;;;;;;5092200;28;20027;-59
2021/12/20 04:41:55;;;;;;;6.63;1.20;;;7.30;99.90;;;;;;5073941;28;20068;-60
2021/12/20 04:44:20;;;;;;;6.90;0.75;;;7.30;99.90;;;;;;5091997;28;20024;-59
2021/12/20 04:46:46;;;;;;;7.95;1.05;;;7.30;99.90;;;;;;5073878;28;20456;-60
2021/12/20 04:49:11;;;;;;;9.45;1.23;;;7.30;99.90;;;;;;5091987;28;20035;-60
2021/12/20 04:51:37;;;;;;;7.15;0.82;;;7.20;99.90;;;;;;5074094;28;20150;-60
2021/12/20 04:54:03;;;;;;;10.25;1.73;;;7.20;99.90;;;;;;5092019;28;20456;-59
2021/12/20 04:56:28;;;;;;;11.93;1.60;;;7.20;99.90;;;;;;5091811;28;20165;-60
2021/12/20 04:58:54;;;;;;;7.03;1.20;;;7.20;99.90;;;;;;5091894;28;20118;-60
2021/12/20 05:01:20;;;;;;;6.13;1.13;;;7.20;99.90;;;;;;5073803;28;20043;-60
2021/12/20 05:03:45;;;;;;;7.82;1.63;;;7.20;99.90;;;;;;5091979;28;20028;-60
2021/12/20 05:06:11;;;;;;;9.02;1.30;;;7.20;99.90;;;;;;5095525;28;20094;-60
2021/12/20 05:08:54;;;;;;;10.48;1.40;;;7.20;99.90;;;;;;5096099;28;20035;-60
2021/12/20 05:11:20;;;;;;;8.35;1.00;;;7.10;99.90;;;;;;5077669;28;20042;-59
2021/12/20 05:13:46;;;;;;;11.73;1.58;;;7.10;99.90;;;;;;5077798;28;20032;-60
2021/12/20 05:16:11;;;;;;;7.82;1.05;;;7.10;99.90;;;;;;5095859;28;20077;-60
2021/12/20 05:18:37;;;;;;;11.18;1.65;;;7.10;99.90;;;;;;5095639;28;20052;-60
2021/12/20 05:21:02;;;;;;;4.57;1.42;;;7.10;99.90;;;;;;5077507;28;20024;-59
2021/12/20 05:23:28;;;;;;;9.00;1.20;;;7.10;99.90;;;;;;5095825;28;20031;-59
2021/12/20 05:25:55;;;;;;;8.05;1.08;;;7.10;99.90;;;;;;5077428;28;20488;-59
2021/12/20 05:28:21;;;;;;;11.43;1.20;;;7.10;99.90;;;;;;5095689;28;20112;-60
2021/12/20 05:30:50;;;;;;;9.43;1.00;;;7.10;99.90;;;;;;5095709;28;20098;-60
2021/12/20 05:33:15;;;;;;;8.25;1.17;;;7.10;99.90;;;;;;5095783;28;20020;-59
2021/12/20 05:35:56;;;;;;;5.55;0.80;;;7.10;99.90;;;;;;5095719;28;20057;-59
2021/12/20 05:38:24;;;;;;;6.97;1.50;;;7.10;99.90;;;;;;5077450;28;20050;-60
2021/12/20 05:41:03;;;;;;;8.90;1.30;;;7.10;99.90;;;;;;5077002;28;20020;-60
2021/12/20 05:43:29;;;;;;;6.80;1.45;;;7.10;99.90;;;;;;5095490;28;20514;-59
2021/12/20 05:46:31;;;;;;;10.35;1.20;;;7.10;99.90;;;;;;5077011;28;20024;-60
2021/12/20 05:48:57;;;;;;;9.32;1.35;;;7.10;99.90;;;;;;5090011;28;20043;-60
2021/12/20 05:51:22;;;;;;;7.80;0.85;;;7.00;99.90;;;;;;5095225;28;20036;-60
2021/12/20 05:53:48;;;;;;;6.25;0.85;;;7.00;99.90;;;;;;5095245;28;20032;-60
2021/12/20 05:56:13;;;;;;;9.30;1.10;;;7.00;99.90;;;;;;5094849;28;20097;-60
2021/12/20 05:58:39;;;;;;;7.97;0.75;;;7.00;99.90;;;;;;5095148;28;20024;-59
2021/12/20 06:01:04;;;;;;;9.68;1.33;;;7.00;99.90;;;;;;5095005;28;20064;-59
2021/12/20 06:03:30;;;;;;;9.55;1.15;;;7.00;99.90;;;;;;5095015;28;20063;-59
2021/12/20 06:05:57;;;;;;;6.50;1.00;;;7.00;99.90;;;;;;5076895;28;20024;-59
2021/12/20 06:08:23;;;;;;;6.95;1.50;;;7.00;99.90;;;;;;5076639;28;20058;-60
2021/12/20 06:10:48;;;;;;;3.22;0.60;;;7.00;99.90;;;;;;5094746;28;20415;-60
2021/12/20 06:13:14;;;;;;;5.05;1.52;;;7.00;99.90;;;;;;5094685;28;20110;-60
2021/12/20 06:15:39;;;;;;;7.22;0.65;;;7.00;99.90;;;;;;5094419;28;20024;-59
2021/12/20 06:18:05;;;;;;;4.95;0.77;;;7.00;99.90;;;;;;5094469;28;20028;-60
2021/12/20 06:20:30;;;;;;;7.32;0.73;;;7.00;99.90;;;;;;5094846;28;20032;-60
2021/12/20 06:22:56;;;;;;;4.38;1.00;;;7.00;99.90;;;;;;5076503;28;20028;-60
2021/12/20 06:25:21;;;;;;;4.03;0.73;;;7.00;99.90;;;;;;5094456;28;20487;-60
2021/12/20 06:27:47;;;;;;;5.78;0.88;;;7.00;99.90;;;;;;5094357;28;20396;-60
2021/12/20 06:30:15;;;;;;;3.95;0.70;;;7.00;99.90;;;;;;5094371;28;20097;-60
2021/12/20 06:32:43;;;;;;;8.45;1.15;;;7.00;99.90;;;;;;5094505;28;20062;-60
2021/12/20 06:35:09;;;;;;;7.10;1.10;;;7.00;99.90;;;;;;5094303;28;20036;-59
2021/12/20 06:38:17;;;;;;;7.93;1.13;;;7.00;99.90;;;;;;5094269;28;20024;-60
2021/12/20 06:41:06;;;;;;;6.60;0.75;;;7.00;99.90;;;;;;5055016;28;20075;-60
2021/12/20 06:43:32;;;;;;;5.53;1.50;;;6.90;99.90;;;;;;5075979;28;20083;-60
2021/12/20 06:45:57;;;;;;;6.57;0.93;;;7.00;99.90;;;;;;5073069;28;20020;-60
2021/12/20 06:48:23;;;;;;;6.88;0.90;;;7.00;99.90;;;;;;5053818;28;20393;-60
2021/12/20 06:50:48;;;;;;;3.97;0.55;;;7.00;99.90;;;;;;5075526;28;20044;-60
2021/12/20 06:53:14;;;;;;;4.93;0.93;;;7.00;99.90;;;;;;5072385;28;20031;-59
2021/12/20 06:55:39;;;;;;;6.50;0.75;;;7.00;99.90;;;;;;5077848;28;20500;-60
2021/12/20 06:58:05;;;;;;;4.45;0.70;;;6.90;99.90;;;;;;5081143;28;20021;-60
2021/12/20 07:00:31;;;;;;;7.10;0.98;;;6.90;99.90;;;;;;5074418;28;20029;-59
2021/12/20 07:03:04;;;;;;;6.30;1.27;;;6.90;99.90;;;;;;5074738;28;20028;-60
2021/12/20 07:05:30;;;;;;;11.80;1.05;;;6.90;99.90;;;;;;5057990;28;20036;-59
2021/12/20 07:07:55;;;;;;;4.00;0.88;;;6.90;99.90;;;;;;5081280;28;20029;-59
2021/12/20 07:10:21;;;;;;;8.52;1.33;;;6.90;99.90;;;;;;5067744;28;20543;-60
2021/12/20 07:12:47;;;;;;;7.25;1.35;;;6.90;99.90;;;;;;5077603;28;20064;-60
2021/12/20 07:15:14;;;;;;;6.80;1.15;;;6.90;99.90;;;;;;5083165;28;20468;-59
2021/12/20 07:17:41;;;;;;;8.82;1.48;;;6.90;99.90;;;;;;5079882;28;20103;-60
2021/12/20 07:20:08;;;;;;;9.20;1.40;;;6.80;99.90;;;;;;5081007;28;20086;-59
2021/12/20 07:22:34;;;;;;;5.68;0.75;;;6.80;99.90;;;;;;5073337;28;20048;-59
2021/12/20 07:25:00;;;;;;;4.20;0.52;;;6.70;99.90;;;;;;5077009;28;20024;-60
2021/12/20 07:27:25;;;;;;;7.93;0.65;;;6.70;99.90;;;;;;5085498;28;20029;-60
2021/12/20 07:30:04;;;;;;;7.65;0.93;;;6.70;99.90;;;;;;5086219;28;20018;-60
2021/12/20 07:32:32;;;;;;;5.13;0.68;;;6.70;99.90;;;;;;5076518;28;20471;-60
2021/12/20 07:41:44;;;;;;;8.32;1.20;;;6.80;99.90;;;;;;5018152;28;20044;-60
2021/12/20 07:48:06;;;;;;;10.00;0.88;;;6.70;99.90;;;;;;5080373;28;20113;-60
2021/12/20 07:51:32;;;;;;;5.10;0.70;;;6.70;99.90;;;;;;5065827;28;20040;-60
2021/12/20 07:53:58;;;;;;;4.13;0.55;;;6.70;99.90;;;;;;5063506;28;20055;-60
2021/12/20 07:56:23;;;;;;;3.80;0.80;;;6.70;99.90;;;;;;5079798;28;20036;-59
2021/12/20 07:58:49;;;;;;;8.05;0.90;;;6.70;99.90;;;;;;5078713;28;20024;-59
2021/12/20 08:01:16;;;;;;;6.10;0.85;;;6.70;99.90;;;;;;5071387;28;20065;-59
2021/12/20 08:03:42;;;;;;;4.75;0.93;;;6.70;99.90;;;;;;5076956;28;20020;-60
2021/12/20 08:06:08;;;;;;;7.47;0.90;;;6.70;99.90;;;;;;5076018;28;20039;-60
2021/12/20 08:08:40;;;;;;;6.97;1.33;;;6.70;99.90;;;;;;5065759;28;20837;-60
2021/12/20 08:11:06;;;;;;;5.80;0.80;;;6.70;99.90;;;;;;5079170;28;20024;-60
2021/12/20 08:13:32;;;;;;;8.75;1.35;;;6.70;99.90;;;;;;5076350;28;20029;-60
2021/12/20 08:15:58;;;;;;;7.63;0.90;;;6.70;99.90;;;;;;5078533;28;20066;-59
2021/12/20 08:18:23;;;;;;;5.38;0.70;;;6.70;99.90;;;;;;5076173;28;20048;-60
2021/12/20 08:21:00;;;;;;;8.60;1.27;;;6.70;99.90;;;;;;5072430;28;20095;-60
2021/12/20 08:24:05;;;;;;;8.15;1.50;;;6.70;99.90;;;;;;5076823;28;20048;-60
2021/12/20 08:27:19;;;;;;;11.48;1.40;;;6.70;99.90;;;;;;5051674;28;20081;-60
2021/12/20 08:29:45;;;;;;;7.20;0.98;;;6.70;99.90;;;;;;5055770;28;20032;-60
2021/12/20 08:32:11;;;;;;;5.97;0.70;;;6.60;99.90;;;;;;5075035;28;20077;-60
2021/12/20 08:34:36;;;;;;;6.95;0.85;;;6.70;99.90;;;;;;5075685;28;20103;-60
2021/12/20 08:37:02;;;;;;;8.57;1.15;;;6.70;99.90;;;;;;5078179;28;20106;-61
2021/12/20 08:39:29;;;;;;;6.03;1.25;;;6.70;99.90;;;;;;5079578;28;20566;-60
2021/12/20 08:41:58;;;;;;;6.45;0.80;;;6.80;99.90;;;;;;5089115;28;20035;-60
2021/12/20 08:44:25;;;;;;;7.95;1.00;;;6.80;99.90;;;;;;5091473;28;20433;-60
2021/12/20 08:47:00;;;;;;;3.60;0.80;;;6.80;99.90;;;;;;5091252;28;20431;-60
2021/12/20 08:49:26;;;;;;;5.68;1.00;;;6.80;99.90;;;;;;5091829;28;20485;-60
2021/12/20 08:51:54;;;;;;;6.95;0.90;;;6.80;99.90;;;;;;5092047;28;20024;-60
2021/12/20 08:54:20;;;;;;;7.13;0.93;;;6.90;99.90;;;;;;5091658;28;20031;-59
2021/12/20 08:56:46;;;;;;;4.78;0.68;;;6.90;99.90;;;;;;5090491;28;20060;-60
2021/12/20 08:59:12;;;;;;;3.10;0.75;;;6.90;99.90;;;;;;5091294;28;20071;-59
2021/12/20 09:01:38;;;;;;;6.07;1.23;;;6.90;99.90;;;;;;5090915;28;20537;-60
2021/12/20 09:04:05;;;;;;;4.95;1.00;;;7.00;99.90;;;;;;5091323;28;20111;-60
2021/12/20 09:06:32;;;;;;;8.65;0.90;;;6.90;99.90;;;;;;5091543;28;20020;-60
2021/12/20 09:08:58;;;;;;;6.97;1.00;;;6.90;99.90;;;;;;5091861;28;20531;-60
2021/12/20 09:11:26;;;;;;;5.22;0.75;;;6.90;99.90;;;;;;5090895;28;20032;-60
2021/12/20 09:13:52;;;;;;;6.75;1.20;;;7.00;99.90;;;;;;5091565;28;20020;-60
2021/12/20 09:16:18;;;;;;;8.25;1.38;;;7.00;99.90;;;;;;5091315;28;20024;-60
2021/12/20 09:18:43;;;;;;;9.48;1.10;;;7.00;99.90;;;;;;5091541;28;20585;-60
2021/12/20 09:21:10;;;;;;;7.95;0.80;;;7.00;99.90;;;;;;5091607;28;20031;-60
2021/12/20 09:23:37;;;;;;;9.93;1.10;;;7.00;99.90;;;;;;5091499;28;20016;-60
2021/12/20 09:26:03;;;;;;;5.78;1.15;;;7.10;99.90;;;;;;5073560;28;20020;-60
2021/12/20 09:28:29;;;;;;;6.53;1.27;;;7.10;99.90;;;;;;5091644;28;20053;-59
2021/12/20 09:30:55;;;;;;;8.85;1.95;;;7.10;99.90;;;;;;5091359;28;20086;-59
2021/12/20 09:33:20;;;;;;;4.75;0.80;;;7.20;99.90;;;;;;5091491;28;20149;-60
2021/12/20 09:35:46;;;;;;;8.50;1.25;;;7.20;99.90;;;;;;5091551;28;20027;-59
2021/12/20 09:38:16;;;;;;;7.20;1.00;;;7.20;99.90;;;;;;5091479;28;20016;-60
2021/12/20 09:41:01;;;;;;;;;;;7.20;99.90;;;;;;5092318;28;20086;-59
2021/12/20 09:44:14;;;;;;;4.72;0.82;;;7.20;99.90;;;;;;5091089;28;20108;-60
2021/12/20 09:46:40;;;;;;;6.75;1.13;;;7.20;99.90;;;;;;5091228;28;20113;-60
2021/12/20 09:49:07;;;;;;;6.40;0.90;;;7.20;99.90;;;;;;5091731;28;20099;-60
2021/12/20 09:51:32;;;;;;;7.60;1.02;;;7.30;99.90;;;;;;5094111;28;20031;-59
2021/12/20 09:53:58;;;;;;;7.72;1.20;;;7.30;99.90;;;;;;5095071;28;20050;-60
2021/12/20 09:56:27;;;;;;;7.97;1.15;;;7.40;99.90;;;;;;5094854;28;20035;-59
2021/12/20 09:58:57;;;;;;;12.10;1.60;;;7.50;99.90;;;;;;5095463;28;20028;-60
2021/12/20 10:01:25;;;;;;;7.82;1.27;;;7.60;99.90;;;;;;5076877;28;20025;-59
2021/12/20 10:03:52;;;;;;;7.20;1.20;;;8.00;99.90;;;;;;5095042;28;20036;-60
2021/12/20 10:06:18;;;;;;;6.18;0.95;;;8.60;99.90;;;;;;5094757;28;20028;-60
2021/12/20 10:08:52;;;;;;;9.68;1.55;;;8.90;99.50;;;;;;5094893;28;20391;-60
2021/12/20 10:11:24;;;;;;;7.65;1.35;;;9.00;98.90;;;;;;5094862;28;20024;-60
2021/12/20 10:14:20;;;;;;;6.63;1.30;;;9.00;98.80;;;;;;5090482;28;20550;-60
2021/12/20 10:16:46;;;;;;;7.15;1.50;;;9.00;98.70;;;;;;5091907;28;20042;-60
2021/12/20 10:19:34;;;;;;;8.80;1.48;;;9.00;98.40;;;;;;5093401;28;20044;-60
2021/12/20 10:22:50;;;;;;;6.88;1.08;;;9.00;98.40;;;;;;5093426;28;20028;-60
2021/12/20 10:25:30;;;;;;;6.93;1.20;;;9.20;98.50;;;;;;5092558;28;20028;-59
2021/12/20 10:28:11;;;;;;;7.72;1.17;;;9.40;98.40;;;;;;5093727;28;20153;-59
2021/12/20 10:30:46;;;;;;;5.60;1.08;;;9.70;98.20;;;;;;5093574;28;20150;-59
2021/12/20 10:33:17;;;;;;;4.72;1.10;;;9.80;98.00;;;;;;5093070;28;20020;-60
2021/12/20 10:36:04;;;;;;;4.32;1.00;;;10.00;97.80;;;;;;5093274;28;20027;-60
2021/12/20 10:38:38;;;;;;;9.40;1.50;;;10.20;97.50;;;;;;5094491;28;20130;-60
2021/12/20 10:41:06;;;;;;;6.95;1.23;;;10.30;97.00;;;;;;5094250;28;20106;-60
2021/12/20 10:43:36;;;;;;;7.65;1.38;;;10.40;96.90;;;;;;5094133;28;20051;-60
2021/12/20 10:46:24;;;;;;;4.00;0.80;;;10.60;96.80;;;;;;5076364;28;20020;-60
2021/12/20 10:49:26;;;;;;;8.23;1.40;;;10.90;96.60;;;;;;5094427;28;20024;-60
2021/12/20 10:51:53;;;;;;;5.03;0.80;;;11.30;96.20;;;;;;5094189;28;20032;-60
2021/12/20 10:55:20;;;;;;;7.85;1.40;;;11.70;96.10;;;;;;5093778;28;20035;-60
2021/12/20 11:04:15;;;;;;;9.85;1.42;;;12.90;94.30;;;;;;5051283;28;20044;-60
2021/12/20 11:07:02;;;;;;;8.90;1.50;;;12.90;93.80;;;;;;5051030;28;20060;-61
2021/12/20 11:09:33;;;;;;;5.65;1.15;;;12.90;93.60;;;;;;5051136;28;20048;-60
2021/12/20 11:12:01;;;;;;;7.70;1.10;;;12.80;93.50;;;;;;5051000;28;20432;-61
2021/12/20 11:14:40;;;;;;;5.85;0.98;;;12.70;93.40;;;;;;5051009;28;20120;-60
2021/12/20 11:17:07;;;;;;;8.07;1.33;;;12.70;93.20;;;;;;5049895;28;20021;-61
2021/12/20 11:19:38;;;;;;;6.10;1.20;;;12.90;93.50;;;;;;5049162;28;20187;-60
2021/12/20 11:22:08;;;;;;;10.73;2.38;;;13.40;92.90;;;;;;5049800;28;20044;-61
2021/12/20 11:24:39;;;;;;;9.52;2.03;;;13.50;89.30;;;;;;5046852;28;20485;-61
2021/12/20 11:33:27;;;;;;;8.73;2.03;;;13.60;90.10;;;;;;5026160;28;20045;-60
2021/12/20 11:35:53;;;;;;;8.43;1.63;;;13.90;87.50;;;;;;5072899;28;20024;-60
2021/12/20 11:38:19;;;;;;;9.70;1.90;;;13.90;86.50;;;;;;5072785;28;20040;-60
2021/12/20 11:41:00;;;;;;;7.97;1.63;;;14.00;86.70;;;;;;5087564;28;20028;-61
2021/12/20 11:43:26;;;;;;;10.85;1.92;;;14.50;86.50;;;;;;5087751;28;20032;-61
2021/12/20 11:45:53;;;;;;;7.82;1.65;;;15.20;85.10;;;;;;5093125;28;20043;-60
2021/12/20 11:48:21;;;;;;;11.25;2.30;;;15.30;83.50;;;;;;5092895;28;20024;-61
2021/12/20 11:50:47;;;;;;;9.55;1.95;;;15.50;83.10;;;;;;5092947;28;20036;-60
2021/12/20 11:53:47;;;;;;;10.30;1.88;;;16.20;82.30;;;;;;5074689;28;20404;-61
2021/12/20 11:59:51;;;;;;;10.57;1.95;;;15.90;79.30;;;;;;4976904;28;20049;-60
2021/12/20 12:02:22;;;;;;;8.88;2.33;;;15.30;80.00;;;;;;4970270;28;20023;-61
2021/12/20 12:05:26;;;;;;;10.30;2.22;;;14.80;80.20;;;;;;5034483;28;20472;-61
2021/12/20 12:15:04;;;;;;;8.05;1.58;;;16.50;79.60;;;;;;5031730;28;20030;-60
2021/12/20 12:17:50;;;;;;;7.43;1.75;;;18.10;74.40;;;;;;5087250;28;20487;-61
2021/12/20 12:20:37;;;;;;;8.45;1.95;;;17.90;72.00;;;;;;5091065;28;20080;-60
2021/12/20 12:23:10;;;;;;;8.93;2.30;;;17.50;70.20;;;;;;5073082;28;20404;-60
2021/12/20 12:25:46;;;;;;;9.32;2.13;;;16.70;69.50;;;;;;5088233;28;20054;-60
2021/12/20 12:28:14;;;;;;;10.57;2.45;;;16.50;70.70;;;;;;5088384;28;20015;-61
2021/12/20 12:30:42;;;;;;;13.57;2.95;;;16.00;71.30;;;;;;5088374;28;20012;-60
2021/12/20 12:33:40;;;;;;;10.98;2.70;;;15.60;72.00;;;;;;5091333;28;20372;-61
2021/12/20 12:39:38;;;;;;;7.13;1.60;;;15.00;73.70;;;;;;4983871;28;20118;-60
2021/12/20 12:42:45;;;;;;;8.90;1.90;;;15.60;73.20;;;;;;5082046;28;20107;-61
2021/12/20 12:45:10;;;;;;;10.40;2.40;;;15.80;71.60;;;;;;5090081;28;20487;-60
2021/12/20 12:47:36;;;;;;;10.00;2.45;;;15.40;71.50;;;;;;5084584;28;20031;-61
2021/12/20 12:50:04;;;;;;;8.65;1.65;;;15.10;71.80;;;;;;5084252;28;20495;-60
2021/12/20 12:52:45;;;;;;;11.60;2.25;;;14.80;72.10;;;;;;5083334;28;20032;-61
2021/12/20 12:55:13;;;;;;;8.63;1.92;;;14.50;72.40;;;;;;5084012;28;20039;-60
2021/12/20 12:58:02;;;;;;;8.13;1.80;;;14.20;72.90;;;;;;5069146;28;20032;-61
2021/12/20 13:00:32;;;;;;;9.30;2.05;;;14.00;73.10;;;;;;5080240;28;20075;-60
2021/12/20 13:03:08;;;;;;;9.05;2.00;;;13.70;73.30;;;;;;5084851;28;20046;-61
2021/12/20 13:05:35;;;;;;;8.77;1.80;;;13.60;73.40;;;;;;5089117;28;20028;-60
2021/12/20 13:08:03;;;;;;;7.50;1.67;;;13.40;73.50;;;;;;5082444;28;20017;-60
2021/12/20 13:10:40;;;;;;;6.45;1.58;;;13.40;73.40;;;;;;5087764;28;20020;-60
2021/12/20 13:13:18;;;;;;;8.68;1.42;;;13.30;73.20;;;;;;5090646;28;20089;-60
2021/12/20 13:16:16;;;;;;;9.57;1.63;;;13.20;73.30;;;;;;5082672;28;20049;-61
2021/12/20 13:18:42;;;;;;;10.88;2.05;;;13.10;73.20;;;;;;5058460;28;20086;-60
2021/12/20 13:21:36;;;;;;;7.18;1.50;;;13.10;73.60;;;;;;5087146;28;20020;-60
2021/12/20 13:24:12;;;;;;;8.50;1.80;;;13.30;73.10;;;;;;5090510;28;20468;-60
2021/12/20 13:26:37;;;;;;;8.07;1.73;;;13.30;73.10;;;;;;5065077;28;20027;-60
2021/12/20 13:29:03;;;;;;;7.35;2.00;;;13.50;72.90;;;;;;5094618;28;20095;-60
2021/12/20 13:31:28;;;;;;;8.60;1.70;;;14.50;72.30;;;;;;5094104;28;20024;-60
2021/12/20 13:33:58;;;;;;;9.85;1.77;;;15.70;70.30;;;;;;5094522;28;20357;-60
2021/12/20 13:36:25;;;;;;;9.25;1.67;;;16.90;68.00;;;;;;5091508;28;20065;-60
2021/12/20 13:38:54;;;;;;;9.13;1.65;;;17.80;65.80;;;;;;5094154;28;20027;-60
2021/12/20 13:41:21;;;;;;;7.80;1.70;;;18.10;64.50;;;;;;5092525;28;20511;-60
2021/12/20 13:43:53;;;;;;;10.63;2.60;;;18.20;64.20;;;;;;5090888;28;20055;-60
2021/12/20 13:46:29;;;;;;;8.20;2.03;;;17.70;63.80;;;;;;5095362;28;20028;-60
2021/12/20 13:48:55;;;;;;;6.78;1.73;;;17.10;64.50;;;;;;5095543;28;20426;-61
2021/12/20 13:51:47;;;;;;;6.18;1.73;;;16.60;65.60;;;;;;5094961;28;20038;-61
2021/12/20 13:54:36;;;;;;;12.70;2.00;;;16.40;65.90;;;;;;5083685;28;20039;-61
2021/12/20 13:57:20;;;;;;;7.18;1.90;;;16.10;66.00;;;;;;5095137;28;20031;-61
2021/12/20 13:59:59;;;;;;;9.88;2.00;;;16.50;66.00;;;;;;5092163;28;20083;-60
2021/12/20 14:02:29;;;;;;;;;;;16.60;65.30;;;;;;5094452;28;20522;-61